createdAt,value
2018-08-12T00:02:34.271Z,9.23
2018-08-12T00:05:22.945Z,8.83
2018-08-12T00:07:52.600Z,12.63
2018-08-12T00:10:25.465Z,11.17
2018-08-12T00:13:06.516Z,13.63
2018-08-12T00:15:35.241Z,10.83
2018-08-12T00:18:04.811Z,10.47
2018-08-12T00:20:34.424Z,11.70
2018-08-12T00:23:03.154Z,10.50
2018-08-12T00:25:31.830Z,12.73
2018-08-12T00:28:20.440Z,10.67
2018-08-12T00:30:59.326Z,13.43
2018-08-12T00:33:28.065Z,13.37
2018-08-12T00:35:57.679Z,11.07
2018-08-12T00:38:31.862Z,12.87
2018-08-12T00:41:16.391Z,11.20
2018-08-12T00:43:58.003Z,12.90
2018-08-12T00:46:26.464Z,12.57
2018-08-12T00:49:02.478Z,11.83
2018-08-12T00:51:32.666Z,14.20
2018-08-12T00:54:01.134Z,12.80
2018-08-12T00:56:37.174Z,12.43
2018-08-12T00:59:17.222Z,14.80
2018-08-12T01:01:48.758Z,13.93
2018-08-12T01:04:24.054Z,13.17
2018-08-12T01:06:57.235Z,13.57
2018-08-12T01:09:37.445Z,11.57
2018-08-12T01:12:23.635Z,13.23
2018-08-12T01:14:52.583Z,11.70
2018-08-12T01:17:22.307Z,13.07
2018-08-12T01:19:57.840Z,15.43
2018-08-12T01:22:27.316Z,12.20
2018-08-12T01:24:55.998Z,14.07
2018-08-12T01:27:25.792Z,16.23
2018-08-12T01:29:54.349Z,15.17
2018-08-12T01:32:26.966Z,13.50
2018-08-12T01:35:01.495Z,13.77
2018-08-12T01:37:32.030Z,12.93
2018-08-12T01:40:00.742Z,13.67
2018-08-12T01:42:29.392Z,14.70
2018-08-12T01:45:09.730Z,15.63
2018-08-12T01:47:43.989Z,13.90
2018-08-12T01:50:24.379Z,13.87
2018-08-12T01:52:53.040Z,14.30
2018-08-12T01:55:37.338Z,17.47
2018-08-12T01:58:11.940Z,15.83
2018-08-12T02:00:50.739Z,16.23
2018-08-12T02:03:20.374Z,17.57
2018-08-12T02:05:49.978Z,15.13
2018-08-12T02:08:18.667Z,13.83
2018-08-12T02:10:47.322Z,14.87
2018-08-12T02:13:17.938Z,14.40
2018-08-12T02:15:48.463Z,15.17
2018-08-12T02:18:22.583Z,16.50
2018-08-12T02:20:54.744Z,15.20
2018-08-12T02:23:26.729Z,12.97
2018-08-12T02:25:59.781Z,14.87
2018-08-12T02:28:40.039Z,18.00
2018-08-12T02:31:17.409Z,15.83
2018-08-12T02:33:46.973Z,20.40
2018-08-12T02:36:16.697Z,16.30
2018-08-12T02:38:47.193Z,15.77
2018-08-12T02:41:15.855Z,17.40
2018-08-12T02:43:44.601Z,19.13
2018-08-12T02:46:13.194Z,14.93
2018-08-12T02:48:42.876Z,19.43
2018-08-12T02:51:13.355Z,17.23
2018-08-12T02:53:42.072Z,17.60
2018-08-12T02:56:10.814Z,20.47
2018-08-12T02:58:43.749Z,16.73
2018-08-12T03:01:12.403Z,19.63
2018-08-12T03:03:41.679Z,17.07
2018-08-12T03:06:10.398Z,19.87
2018-08-12T03:08:39.117Z,18.87
2018-08-12T03:11:09.646Z,14.83
2018-08-12T03:13:38.331Z,19.17
2018-08-12T03:16:17.420Z,16.20
2018-08-12T03:18:48.051Z,19.07
2018-08-12T03:21:29.162Z,15.90
2018-08-12T03:26:50.897Z,16.70
2018-08-12T03:29:19.601Z,19.87
2018-08-12T03:31:49.211Z,17.17
2018-08-12T03:34:18.795Z,18.37
2018-08-12T03:36:48.532Z,19.10
2018-08-12T03:39:18.023Z,18.83
2018-08-12T03:41:48.545Z,16.07
2018-08-12T03:44:20.608Z,18.10
2018-08-12T03:46:50.201Z,17.93
2018-08-12T03:49:20.882Z,17.80
2018-08-12T03:51:56.451Z,17.47
2018-08-12T03:54:27.015Z,17.17
2018-08-12T03:57:13.871Z,17.70
2018-08-12T03:59:44.359Z,19.50
2018-08-12T04:02:26.904Z,14.30
2018-08-12T04:05:13.341Z,16.43
2018-08-12T04:07:49.808Z,21.00
2018-08-12T04:10:20.341Z,17.10
2018-08-12T04:13:06.137Z,15.33
2018-08-12T04:15:38.527Z,15.83
2018-08-12T04:18:25.609Z,19.07
2018-08-12T04:20:54.349Z,14.67
2018-08-12T04:26:16.015Z,17.73
2018-08-12T04:28:57.880Z,14.17
2018-08-12T04:31:34.551Z,14.07
2018-08-12T04:34:14.903Z,14.13
2018-08-12T04:36:51.365Z,15.97
2018-08-12T04:39:24.596Z,15.93
2018-08-12T04:41:54.225Z,17.07
2018-08-12T04:44:39.742Z,41.03
2018-08-12T04:47:12.474Z,12.43
2018-08-12T04:49:52.781Z,16.80
2018-08-12T04:52:22.450Z,14.47
2018-08-12T04:54:51.268Z,13.13
2018-08-12T04:57:26.218Z,13.03
2018-08-12T04:59:55.858Z,14.73
2018-08-12T05:02:26.435Z,13.03
2018-08-12T05:04:55.089Z,14.33
2018-08-12T05:07:41.842Z,12.43
2018-08-12T05:10:27.090Z,16.90
2018-08-12T05:12:56.798Z,13.00
2018-08-12T05:15:28.869Z,14.77
2018-08-12T05:17:57.578Z,13.23
2018-08-12T05:20:26.204Z,12.37
2018-08-12T05:25:49.822Z,11.53
2018-08-12T05:28:18.395Z,10.47
2018-08-12T05:30:47.998Z,12.03
2018-08-12T05:33:17.644Z,10.30
2018-08-12T05:35:46.301Z,11.20
2018-08-12T05:38:19.268Z,13.07
2018-08-12T05:40:48.011Z,9.80
2018-08-12T05:43:20.048Z,9.03
2018-08-12T05:45:50.930Z,9.73
2018-08-12T05:48:26.898Z,10.10
2018-08-12T05:51:01.739Z,9.77
2018-08-12T05:53:31.460Z,10.03
2018-08-12T05:56:05.878Z,8.60
2018-08-12T05:58:43.794Z,9.43
2018-08-12T06:01:16.154Z,11.40
2018-08-12T06:03:44.840Z,11.33
2018-08-12T06:06:14.534Z,8.37
2018-08-12T06:08:44.145Z,9.33
2018-08-12T06:11:12.781Z,9.60
2018-08-12T06:13:46.926Z,9.03
2018-08-12T06:16:15.340Z,9.23
2018-08-12T06:18:44.097Z,11.43
2018-08-12T06:21:13.580Z,8.83
2018-08-12T06:23:45.400Z,10.50
2018-08-12T06:26:23.304Z,8.90
2018-08-12T06:31:56.653Z,8.23
2018-08-12T06:34:26.331Z,9.70
2018-08-12T06:37:05.978Z,6.57
2018-08-12T06:39:35.638Z,9.10
2018-08-12T06:42:27.923Z,7.13
2018-08-12T06:44:56.665Z,8.53
2018-08-12T06:47:25.352Z,9.20
2018-08-12T06:49:54.031Z,6.07
2018-08-12T06:52:22.722Z,6.53
2018-08-12T06:54:51.386Z,6.57
2018-08-12T06:57:21.930Z,8.70
2018-08-12T06:59:51.503Z,5.33
2018-08-12T07:02:20.221Z,5.13
2018-08-12T07:04:49.846Z,4.33
2018-08-12T07:07:19.422Z,6.73
2018-08-12T07:09:48.129Z,4.83
2018-08-12T07:12:16.787Z,6.53
2018-08-12T07:14:45.474Z,5.07
2018-08-12T07:17:14.165Z,7.80
2018-08-12T07:19:42.886Z,5.23
2018-08-12T07:22:15.884Z,6.53
2018-08-12T07:24:49.804Z,6.37
2018-08-12T07:27:23.650Z,5.57
2018-08-12T07:30:11.248Z,4.87
2018-08-12T07:32:43.811Z,6.27
2018-08-12T07:35:12.874Z,7.27
2018-08-12T07:37:52.833Z,7.90
2018-08-12T07:40:29.500Z,5.47
2018-08-12T07:43:09.271Z,5.30
2018-08-12T07:45:54.760Z,15.93
2018-08-12T07:48:24.406Z,3.80
2018-08-12T07:51:13.096Z,4.50
2018-08-12T07:53:41.781Z,4.47
2018-08-12T07:56:13.790Z,3.70
2018-08-12T07:58:42.714Z,3.43
2018-08-12T08:01:12.228Z,4.10
2018-08-12T08:03:57.134Z,3.03
2018-08-12T08:06:27.632Z,4.67
2018-08-12T08:09:00.615Z,3.87
2018-08-12T08:11:29.210Z,3.30
2018-08-12T08:13:58.532Z,11.87
2018-08-12T08:16:27.300Z,6.70
2018-08-12T08:19:06.104Z,2.80
2018-08-12T08:21:36.643Z,5.47
2018-08-12T08:24:06.562Z,5.53
2018-08-12T08:26:35.326Z,4.63
2018-08-12T08:29:05.238Z,2.57
2018-08-12T08:31:35.806Z,13.20
2018-08-12T08:34:05.390Z,3.13
2018-08-12T08:36:43.554Z,3.20
2018-08-12T08:39:14.848Z,2.50
2018-08-12T08:41:59.971Z,4.90
2018-08-12T08:44:34.173Z,2.60
2018-08-12T08:47:07.207Z,2.60
2018-08-12T08:49:36.788Z,2.73
2018-08-12T08:52:07.422Z,3.23
2018-08-12T08:54:59.670Z,3.37
2018-08-12T08:57:30.220Z,2.33
2018-08-12T09:00:08.180Z,2.13
2018-08-12T09:02:43.083Z,1.80
2018-08-12T09:05:12.790Z,2.00
2018-08-12T09:07:46.658Z,1.90
2018-08-12T09:10:27.072Z,2.30
2018-08-12T09:13:08.608Z,2.30
2018-08-12T09:15:47.870Z,2.30
2018-08-12T09:18:23.268Z,3.23
2018-08-12T09:20:59.320Z,1.67
2018-08-12T09:23:46.082Z,1.50
2018-08-12T09:26:16.778Z,1.60
2018-08-12T09:28:49.087Z,3.17
2018-08-12T09:31:17.870Z,2.00
2018-08-12T09:33:50.138Z,1.90
2018-08-12T09:36:21.967Z,5.47
2018-08-12T09:38:50.622Z,2.10
2018-08-12T09:41:22.344Z,5.03
2018-08-12T09:43:52.924Z,1.70
2018-08-12T09:46:21.578Z,2.13
2018-08-12T09:48:55.488Z,2.67
2018-08-12T09:51:24.223Z,11.03
2018-08-12T09:53:56.243Z,2.53
2018-08-12T09:56:26.054Z,6.93
2018-08-12T09:58:56.688Z,2.77
2018-08-12T10:01:26.327Z,4.30
2018-08-12T10:03:55.032Z,2.00
2018-08-12T10:06:23.652Z,1.73
2018-08-12T10:08:56.035Z,1.60
2018-08-12T10:11:24.692Z,1.60
2018-08-12T10:13:53.340Z,4.33
2018-08-12T10:16:22.160Z,1.60
2018-08-12T10:18:55.396Z,2.97
2018-08-12T10:21:24.204Z,2.87
2018-08-12T10:23:57.656Z,2.27
2018-08-12T10:26:31.828Z,1.70
2018-08-12T10:29:12.534Z,5.80
2018-08-12T10:31:46.250Z,1.93
2018-08-12T10:34:18.092Z,2.10
2018-08-12T10:36:53.993Z,2.30
2018-08-12T10:39:22.727Z,1.60
2018-08-12T10:41:51.477Z,2.03
2018-08-12T10:44:20.191Z,1.40
2018-08-12T10:46:48.682Z,1.50
2018-08-12T10:49:17.354Z,2.90
2018-08-12T10:51:46.140Z,4.13
2018-08-12T10:54:15.693Z,1.67
2018-08-12T10:56:49.329Z,1.57
2018-08-12T10:59:18.223Z,1.60
2018-08-12T11:01:46.712Z,4.03
2018-08-12T11:04:16.300Z,1.93
2018-08-12T11:06:47.741Z,2.30
2018-08-12T11:09:16.561Z,4.83
2018-08-12T11:12:01.000Z,2.50
2018-08-12T11:14:45.702Z,3.57
2018-08-12T11:17:15.667Z,2.00
2018-08-12T11:19:45.284Z,1.60
2018-08-12T11:22:25.637Z,3.10
2018-08-12T11:24:58.938Z,1.40
2018-08-12T11:27:28.682Z,1.50
2018-08-12T11:29:59.484Z,1.67
2018-08-12T11:32:28.235Z,3.23
2018-08-12T11:34:58.671Z,1.90
2018-08-12T11:37:32.949Z,1.60
2018-08-12T11:40:03.722Z,3.23
2018-08-12T11:42:32.518Z,3.47
2018-08-12T11:45:07.857Z,1.80
2018-08-12T11:47:36.789Z,1.60
2018-08-12T11:50:12.486Z,1.73
2018-08-12T11:52:46.780Z,1.60
2018-08-12T11:55:18.310Z,1.70
2018-08-12T11:57:47.980Z,1.73
2018-08-12T12:00:18.836Z,1.70
2018-08-12T12:02:48.672Z,2.17
2018-08-12T12:05:19.435Z,4.70
2018-08-12T12:07:51.274Z,2.13
2018-08-12T12:10:23.082Z,1.87
2018-08-12T12:12:52.576Z,1.77
2018-08-12T12:15:21.422Z,2.80
2018-08-12T12:17:52.286Z,1.73
2018-08-12T12:20:26.584Z,1.60
2018-08-12T12:22:55.494Z,2.00
2018-08-12T12:25:36.112Z,1.70
2018-08-12T12:28:08.350Z,1.77
2018-08-12T12:30:37.520Z,2.87
2018-08-12T12:33:08.414Z,1.60
2018-08-12T12:35:37.439Z,3.97
2018-08-12T12:38:06.724Z,1.80
2018-08-12T12:40:35.435Z,1.60
2018-08-12T12:43:08.180Z,1.80
2018-08-12T12:45:37.172Z,1.60
2018-08-12T12:48:08.013Z,3.27
2018-08-12T12:50:41.940Z,1.60
2018-08-12T12:53:10.508Z,2.00
2018-08-12T12:55:40.965Z,1.70
2018-08-12T12:58:11.714Z,1.57
2018-08-12T13:00:41.581Z,1.50
2018-08-12T13:03:10.247Z,1.70
2018-08-12T13:05:39.882Z,1.77
2018-08-12T13:08:09.476Z,1.70
2018-08-12T13:10:39.236Z,3.43
2018-08-12T13:13:10.797Z,2.87
2018-08-12T13:15:40.509Z,1.70
2018-08-12T13:18:10.393Z,1.63
2018-08-12T13:20:39.336Z,1.97
2018-08-12T13:23:09.083Z,1.60
2018-08-12T13:25:38.619Z,2.63
2018-08-12T13:28:07.838Z,1.97
2018-08-12T13:30:39.736Z,1.60
2018-08-12T13:33:08.393Z,3.33
2018-08-12T13:35:42.236Z,1.73
2018-08-12T13:38:14.331Z,1.60
2018-08-12T13:40:43.295Z,1.60
2018-08-12T13:43:12.275Z,2.07
2018-08-12T13:45:43.183Z,1.53
2018-08-12T13:48:13.091Z,6.03
2018-08-12T13:50:47.417Z,2.43
2018-08-12T13:55:59.131Z,3.17
2018-08-12T13:58:28.951Z,5.77
2018-08-12T14:00:57.623Z,1.97
2018-08-12T14:03:28.373Z,3.40
2018-08-12T14:05:58.131Z,2.37
2018-08-12T14:08:27.696Z,1.50
2018-08-12T14:11:01.851Z,1.87
2018-08-12T14:13:32.545Z,2.87
2018-08-12T14:16:01.563Z,2.23
2018-08-12T14:18:43.656Z,6.03
2018-08-12T14:21:13.345Z,2.57
2018-08-12T14:23:42.804Z,2.70
2018-08-12T14:26:16.772Z,2.33
2018-08-12T14:28:45.428Z,2.50
2018-08-12T14:31:16.046Z,2.07
2018-08-12T14:33:50.802Z,2.40
2018-08-12T14:36:20.422Z,2.50
2018-08-12T14:38:49.071Z,3.03
2018-08-12T14:41:19.050Z,1.73
2018-08-12T14:44:03.611Z,3.30
2018-08-12T14:46:34.763Z,3.53
2018-08-12T14:49:06.694Z,4.00
2018-08-12T14:51:35.601Z,2.93
2018-08-12T14:54:08.942Z,2.50
2018-08-12T14:56:37.580Z,2.37
2018-08-12T14:59:11.779Z,3.23
2018-08-12T15:01:41.318Z,3.73
2018-08-12T15:04:13.196Z,3.67
2018-08-12T15:06:42.194Z,2.83
2018-08-12T15:09:20.692Z,3.40
2018-08-12T15:11:54.846Z,4.63
2018-08-12T15:14:28.154Z,2.93
2018-08-12T15:16:58.681Z,3.50
2018-08-12T15:19:30.512Z,4.40
2018-08-12T15:22:01.322Z,2.43
2018-08-12T15:24:31.146Z,5.00
2018-08-12T15:27:00.798Z,2.40
2018-08-12T15:29:32.049Z,2.77
2018-08-12T15:32:02.559Z,2.53
2018-08-12T15:34:35.682Z,3.00
2018-08-12T15:37:07.426Z,3.53
2018-08-12T15:39:37.630Z,2.73
2018-08-12T15:45:05.019Z,2.40
2018-08-12T15:47:39.386Z,3.13
2018-08-12T15:50:13.738Z,2.83
2018-08-12T15:52:44.538Z,2.80
2018-08-12T15:55:14.491Z,3.07
2018-08-12T15:57:43.315Z,2.10
2018-08-12T16:00:20.610Z,2.73
2018-08-12T16:02:50.513Z,2.67
2018-08-12T16:05:19.918Z,2.17
2018-08-12T16:07:53.821Z,2.47
2018-08-12T16:10:24.209Z,33.63
2018-08-12T16:12:58.602Z,6.20
2018-08-12T16:15:34.177Z,6.33
2018-08-12T16:18:04.955Z,3.73
2018-08-12T16:20:39.992Z,4.43
2018-08-12T16:23:13.130Z,3.13
2018-08-12T16:25:44.169Z,3.03
2018-08-12T16:28:13.854Z,7.53
2018-08-12T16:30:48.023Z,3.23
2018-08-12T16:33:26.535Z,4.13
2018-08-12T16:36:01.360Z,9.10
2018-08-12T16:38:30.389Z,4.23
2018-08-12T16:41:04.908Z,3.87
2018-08-12T16:43:34.850Z,3.50
2018-08-12T16:46:06.663Z,15.03
2018-08-12T16:48:37.754Z,3.30
2018-08-12T16:51:07.360Z,3.63
2018-08-12T16:53:41.559Z,3.90
2018-08-12T16:56:12.163Z,6.10
2018-08-12T16:58:42.259Z,4.53
2018-08-12T17:01:16.316Z,2.90
2018-08-12T17:03:52.221Z,7.30
2018-08-12T17:06:21.434Z,6.33
2018-08-12T17:09:06.700Z,9.10
2018-08-12T17:11:36.410Z,3.67
2018-08-12T17:14:12.275Z,3.87
2018-08-12T17:16:41.992Z,3.43
2018-08-12T17:19:11.741Z,7.50
2018-08-12T17:21:42.193Z,5.57
2018-08-12T17:24:11.867Z,3.67
2018-08-12T17:26:40.503Z,2.90
2018-08-12T17:29:14.094Z,5.47
2018-08-12T17:31:43.774Z,4.30
2018-08-12T17:34:12.740Z,6.60
2018-08-12T17:36:41.400Z,3.43
2018-08-12T17:39:10.745Z,2.93
2018-08-12T17:41:39.742Z,3.77
2018-08-12T17:44:15.117Z,2.90
2018-08-12T17:46:49.147Z,3.97
2018-08-12T17:49:22.694Z,6.10
2018-08-12T17:51:51.374Z,2.80
2018-08-12T17:54:29.628Z,3.13
2018-08-12T17:57:04.702Z,3.10
2018-08-12T17:59:53.633Z,3.37
2018-08-12T18:02:31.998Z,4.23
2018-08-12T18:05:06.683Z,3.57
2018-08-12T18:07:37.991Z,3.93
2018-08-12T18:10:16.462Z,2.93
2018-08-12T18:12:45.046Z,2.20
2018-08-12T18:15:17.961Z,3.70
2018-08-12T18:17:51.730Z,2.83
2018-08-12T18:20:20.708Z,2.50
2018-08-12T18:22:49.831Z,2.57
2018-08-12T18:25:18.740Z,5.40
2018-08-12T18:27:48.618Z,3.37
2018-08-12T18:30:19.080Z,5.33
2018-08-12T18:32:51.446Z,4.27
2018-08-12T18:35:20.172Z,8.20
2018-08-12T18:37:55.568Z,7.47
2018-08-12T18:40:35.579Z,3.63
2018-08-12T18:43:09.995Z,6.07
2018-08-12T18:45:39.009Z,3.30
2018-08-12T18:48:09.663Z,4.63
2018-08-12T18:50:38.396Z,4.63
2018-08-12T18:53:07.078Z,5.40
2018-08-12T18:55:36.705Z,5.73
2018-08-12T18:58:06.605Z,4.67
2018-08-12T19:00:37.166Z,4.23
2018-08-12T19:03:08.118Z,4.47
2018-08-12T19:05:37.325Z,5.87
2018-08-12T19:08:08.385Z,5.90
2018-08-12T19:10:40.960Z,4.63
2018-08-12T19:13:11.035Z,5.43
2018-08-12T19:15:41.871Z,5.37
2018-08-12T19:18:12.577Z,5.47
2018-08-12T19:20:46.937Z,6.23
2018-08-12T19:23:15.907Z,6.13
2018-08-12T19:25:45.542Z,4.80
2018-08-12T19:28:16.497Z,4.00
2018-08-12T19:30:52.185Z,4.33
2018-08-12T19:33:21.717Z,5.30
2018-08-12T19:35:55.930Z,5.60
2018-08-12T19:38:25.044Z,4.73
2018-08-12T19:40:55.067Z,4.07
2018-08-12T19:43:23.806Z,5.27
2018-08-12T19:45:54.939Z,4.53
2018-08-12T19:48:24.038Z,4.50
2018-08-12T19:50:53.640Z,4.07
2018-08-12T19:53:23.888Z,6.33
2018-08-12T19:55:58.915Z,4.87
2018-08-12T19:58:27.614Z,4.40
2018-08-12T20:01:01.180Z,4.37
2018-08-12T20:03:31.103Z,5.30
2018-08-12T20:06:00.452Z,3.20
2018-08-12T20:08:30.947Z,7.10
2018-08-12T20:11:00.923Z,4.23
2018-08-12T20:13:30.246Z,5.83
2018-08-12T20:15:58.901Z,6.90
2018-08-12T20:18:27.907Z,3.80
2018-08-12T20:20:56.595Z,5.47
2018-08-12T20:23:25.272Z,5.20
2018-08-12T20:25:58.371Z,5.80
2018-08-12T20:28:33.972Z,5.03
2018-08-12T20:31:04.277Z,6.03
2018-08-12T20:33:33.203Z,4.87
2018-08-12T20:36:02.851Z,3.90
2018-08-12T20:38:31.532Z,4.13
2018-08-12T20:41:06.011Z,5.57
2018-08-12T20:43:40.341Z,8.67
2018-08-12T20:46:13.343Z,4.87
2018-08-12T20:48:42.881Z,4.57
2018-08-12T20:51:11.775Z,4.67
2018-08-12T20:53:45.319Z,3.10
2018-08-12T20:56:15.227Z,3.63
2018-08-12T20:58:43.749Z,5.50
2018-08-12T21:01:12.453Z,6.33
2018-08-12T21:03:43.056Z,4.17
2018-08-12T21:06:11.679Z,4.03
2018-08-12T21:08:41.277Z,3.93
2018-08-12T21:11:09.970Z,4.17
2018-08-12T21:13:38.649Z,4.63
2018-08-12T21:16:11.301Z,4.43
2018-08-12T21:18:43.091Z,9.57
2018-08-12T21:21:11.775Z,4.43
2018-08-12T21:23:41.376Z,6.90
2018-08-12T21:26:10.111Z,3.93
2018-08-12T21:28:38.862Z,5.83
2018-08-12T21:31:07.449Z,5.33
2018-08-12T21:33:36.120Z,4.60
2018-08-12T21:36:18.877Z,3.80
2018-08-12T21:38:51.057Z,4.40
2018-08-12T21:41:22.906Z,5.70
2018-08-12T21:43:52.029Z,4.70
2018-08-12T21:46:24.860Z,4.03
2018-08-12T21:48:54.369Z,4.67
2018-08-12T21:51:27.963Z,3.77
2018-08-12T21:54:08.566Z,5.43
2018-08-12T21:56:37.268Z,5.50
2018-08-12T21:59:10.890Z,4.93
2018-08-12T22:01:46.107Z,4.87
2018-08-12T22:04:15.765Z,4.07
2018-08-12T22:06:45.210Z,6.40
2018-08-12T22:09:19.145Z,3.73
2018-08-12T22:11:47.868Z,4.33
2018-08-12T22:14:16.530Z,3.60
2018-08-12T22:16:47.118Z,3.73
2018-08-12T22:19:15.805Z,4.67
2018-08-12T22:21:53.947Z,3.37
2018-08-12T22:24:24.853Z,3.40
2018-08-12T22:26:53.461Z,3.30
2018-08-12T22:29:22.147Z,3.43
2018-08-12T22:31:50.909Z,3.90
2018-08-12T22:34:23.271Z,5.73
2018-08-12T22:36:52.902Z,4.43
2018-08-12T22:39:21.714Z,4.93
2018-08-12T22:41:50.201Z,4.30
2018-08-12T22:44:22.282Z,5.10
2018-08-12T22:47:02.290Z,3.50
2018-08-12T22:49:30.734Z,4.00
2018-08-12T22:52:01.502Z,3.93
2018-08-12T22:54:29.922Z,5.70
2018-08-12T22:56:58.683Z,4.03
2018-08-12T22:59:27.299Z,5.43
2018-08-12T23:01:56.005Z,4.53
2018-08-12T23:04:30.197Z,5.03
2018-08-12T23:06:58.927Z,4.33
2018-08-12T23:09:27.585Z,5.73
2018-08-12T23:11:56.251Z,4.03
2018-08-12T23:14:24.993Z,5.13
2018-08-12T23:16:57.005Z,4.37
2018-08-12T23:19:25.764Z,4.27
2018-08-12T23:21:54.405Z,5.23
2018-08-12T23:24:26.459Z,4.33
2018-08-12T23:26:55.151Z,7.13
2018-08-12T23:29:23.815Z,3.93
2018-08-12T23:31:55.585Z,4.63
2018-08-12T23:34:24.256Z,3.80
2018-08-12T23:36:53.846Z,5.13
2018-08-12T23:39:26.837Z,4.17
2018-08-12T23:41:55.244Z,8.13
2018-08-12T23:44:30.688Z,4.73
2018-08-12T23:46:59.381Z,7.13
2018-08-12T23:49:32.742Z,5.80
2018-08-12T23:52:02.274Z,4.27
2018-08-12T23:54:39.253Z,4.80
2018-08-12T23:57:09.784Z,6.17
2018-08-12T23:59:51.970Z,5.40
